Time;durP1;ratioP1;P1;durP2;ratioP2;P2;SDS_P1;SDS_P2;PMS_P1;PMS_P2;Temp;Humidity;BMP_temperature;BMP_pressure;BME280_temperature;BME280_humidity;BME280_pressure;Samples;Min_cycle;Max_cycle;Signal;HPM_P1;HPM_P2
2022/12/16 00:01:45;;;;;;;;;;;-4.70;99.90;;;;;;5037771;28;19952;-83
2022/12/16 00:04:11;;;;;;;;;;;-4.70;99.90;;;;;;5039970;28;20536;-83
2022/12/16 00:06:36;;;;;;;;;;;-4.70;99.90;;;;;;5038221;28;19909;-85
2022/12/16 00:09:02;;;;;;;;;;;-4.70;99.90;;;;;;5110091;22;19924;-83
2022/12/16 00:11:27;;;;;;;;;;;-4.70;99.90;;;;;;5092422;28;19915;-83
2022/12/16 00:13:53;;;;;;;;;;;-4.70;99.90;;;;;;5093912;28;19915;-83
2022/12/16 00:16:19;;;;;;;;;;;-4.70;99.90;;;;;;5092739;28;19912;-83
2022/12/16 00:18:45;;;;;;;;;;;-4.70;99.90;;;;;;5092278;28;19908;-84
2022/12/16 00:21:10;;;;;;;;;;;-4.70;99.90;;;;;;5092464;28;20399;-83
2022/12/16 00:23:38;;;;;;;;;;;-4.70;99.90;;;;;;5092259;28;20413;-84
2022/12/16 00:26:04;;;;;;;;;;;-4.70;99.90;;;;;;5092787;28;19960;-83
2022/12/16 00:28:30;;;;;;;;;;;-4.70;99.90;;;;;;5092451;28;19912;-83
2022/12/16 00:30:55;;;;;;;;;;;-4.60;99.90;;;;;;5092318;28;19914;-84
2022/12/16 00:33:22;;;;;;;;;;;-4.70;99.90;;;;;;5093903;28;19912;-84
2022/12/16 00:35:48;;;;;;;;;;;-4.60;99.90;;;;;;5093976;28;19939;-84
2022/12/16 00:38:14;;;;;;;;;;;-4.60;99.90;;;;;;5092339;28;19934;-83
2022/12/16 00:40:39;;;;;;;;;;;-4.60;99.90;;;;;;5093622;28;19963;-84
2022/12/16 00:43:05;;;;;;;;;;;-4.60;99.90;;;;;;5092210;28;19908;-84
2022/12/16 00:45:30;;;;;;;;;;;-4.60;99.90;;;;;;5092253;28;19908;-83
2022/12/16 00:47:56;;;;;;;;;;;-4.60;99.90;;;;;;5093414;28;19931;-84
2022/12/16 00:50:22;;;;;;;;;;;-4.70;99.90;;;;;;5093529;28;19909;-84
2022/12/16 00:52:47;;;;;;;;;;;-4.70;99.90;;;;;;5093118;28;20446;-83
2022/12/16 00:55:13;;;;;;;;;;;-4.70;99.90;;;;;;5093921;28;19911;-85
2022/12/16 00:57:39;;;;;;;;;;;-4.70;99.90;;;;;;5092554;28;19919;-87
2022/12/16 01:00:05;;;;;;;;;;;-4.70;99.90;;;;;;5094048;28;20510;-86
2022/12/16 01:02:31;;;;;;;;;;;-4.70;99.90;;;;;;5093973;28;19915;-87
2022/12/16 01:04:56;;;;;;;;;;;-4.80;99.90;;;;;;5094541;28;19909;-86
2022/12/16 01:07:22;;;;;;;;;;;-4.80;99.90;;;;;;5092432;28;19912;-86
2022/12/16 01:09:47;;;;;;;;;;;-4.80;99.90;;;;;;5094134;28;19904;-86
2022/12/16 01:12:13;;;;;;;;;;;-4.80;99.90;;;;;;5092607;28;20388;-85
2022/12/16 01:14:38;;;;;;;;;;;-4.80;99.90;;;;;;5092923;28;19912;-86
2022/12/16 01:17:04;;;;;;;;;;;-4.80;99.90;;;;;;5092386;28;19908;-85
2022/12/16 01:19:29;;;;;;;;;;;-4.80;99.90;;;;;;5093723;28;19912;-86
2022/12/16 01:21:55;;;;;;;;;;;-4.80;99.90;;;;;;5092333;28;20518;-87
2022/12/16 01:24:20;;;;;;;;;;;-4.80;99.90;;;;;;5093877;28;19908;-84
2022/12/16 01:26:46;;;;;;;;;;;-4.90;99.90;;;;;;5092694;28;19908;-85
2022/12/16 01:29:11;;;;;;;;;;;-4.90;99.90;;;;;;5092131;28;20017;-86
2022/12/16 01:31:37;;;;;;;;;;;-4.90;99.90;;;;;;5092184;28;20007;-86
2022/12/16 01:34:02;;;;;;;;;;;-4.90;99.90;;;;;;5092407;28;19908;-85
2022/12/16 01:36:28;;;;;;;;;;;-4.90;99.90;;;;;;5093860;28;20411;-86
2022/12/16 01:38:53;;;;;;;;;;;-4.90;99.90;;;;;;5092040;28;19919;-87
2022/12/16 01:41:19;;;;;;;;;;;-4.90;99.90;;;;;;5092949;28;19958;-86
2022/12/16 01:43:45;;;;;;;;;;;-4.90;99.90;;;;;;5093700;28;20385;-86
2022/12/16 01:46:17;;;;;;;;;;;-4.80;99.90;;;;;;5093450;28;19915;-85
2022/12/16 01:48:42;;;;;;;;;;;-4.80;99.90;;;;;;5094872;28;20305;-84
2022/12/16 01:51:14;;;;;;;;;;;-4.80;99.90;;;;;;5094069;28;19923;-86
2022/12/16 01:53:41;;;;;;;;;;;-4.80;99.90;;;;;;5092992;28;19998;-86
2022/12/16 01:56:06;;;;;;;;;;;-4.80;99.90;;;;;;5093008;28;20289;-87
2022/12/16 01:58:33;;;;;;;;;;;-4.80;99.90;;;;;;5093039;28;19920;-86
2022/12/16 02:00:59;;;;;;;;;;;-4.80;99.90;;;;;;5092204;28;19916;-84
2022/12/16 02:03:25;;;;;;;;;;;-4.80;99.90;;;;;;5092969;28;19912;-85
2022/12/16 02:05:50;;;;;;;;;;;-4.90;99.90;;;;;;5096256;28;19965;-86
2022/12/16 02:08:17;;;;;;;;;;;-4.90;99.90;;;;;;5097609;28;19916;-86
2022/12/16 02:10:43;;;;;;;;;;;-4.90;99.90;;;;;;5095971;28;19957;-86
2022/12/16 02:13:30;;;;;;;;;;;-4.90;99.90;;;;;;5095836;28;20350;-87
2022/12/16 02:15:58;;;;;;;;;;;-5.00;99.90;;;;;;5096346;28;20261;-85
2022/12/16 02:18:56;;;;;;;;;;;-5.00;99.90;;;;;;5095863;28;19909;-85
2022/12/16 02:21:48;;;;;;;;;;;-5.00;99.90;;;;;;5083881;28;20014;-86
2022/12/16 02:24:32;;;;;;;;;;;-4.90;99.90;;;;;;5094438;28;19908;-86
2022/12/16 02:27:03;;;;;;;;;;;-5.00;99.90;;;;;;5096796;28;19958;-86
2022/12/16 02:29:48;;;;;;;;;;;-4.90;99.90;;;;;;5096157;28;19919;-86
2022/12/16 02:32:13;;;;;;;;;;;-4.80;99.90;;;;;;5095602;28;19908;-86
2022/12/16 02:34:54;;;;;;;;;;;-4.80;99.90;;;;;;5097092;28;19915;-86
2022/12/16 02:37:30;;;;;;;;;;;-4.70;99.90;;;;;;5095979;28;19908;-88
2022/12/16 02:39:58;;;;;;;;;;;-4.70;99.90;;;;;;5095542;28;19919;-86
2022/12/16 02:42:27;;;;;;;;;;;-4.60;99.90;;;;;;5095170;28;19945;-85
2022/12/16 02:44:59;;;;;;;;;;;-4.60;99.90;;;;;;5095011;28;19908;-86
2022/12/16 02:47:24;;;;;;;;;;;-4.50;99.90;;;;;;5095067;28;19914;-85
2022/12/16 02:49:51;;;;;;;;;;;-4.50;99.90;;;;;;5095632;28;19908;-86
2022/12/16 02:52:18;;;;;;;;;;;-4.50;99.90;;;;;;5096657;28;19954;-86
2022/12/16 02:54:44;;;;;;;;;;;-4.40;99.90;;;;;;5096414;28;19954;-86
2022/12/16 02:57:26;;;;;;;;;;;-4.40;99.90;;;;;;5095082;28;19908;-87
2022/12/16 02:59:51;;;;;;;;;;;-4.40;99.90;;;;;;5095331;28;19918;-87
2022/12/16 03:02:21;;;;;;;;;;;-4.30;99.90;;;;;;5096541;28;19951;-86
2022/12/16 03:04:50;;;;;;;;;;;-4.30;99.90;;;;;;5095056;28;19908;-85
2022/12/16 03:07:17;;;;;;;;;;;-4.30;99.90;;;;;;5094848;28;20284;-87
2022/12/16 03:09:44;;;;;;;;;;;-4.30;99.90;;;;;;5094829;28;19920;-86
2022/12/16 03:12:11;;;;;;;;;;;-4.30;99.90;;;;;;5094600;28;19908;-87
2022/12/16 03:14:38;;;;;;;;;;;-4.40;99.90;;;;;;5095715;28;19908;-86
2022/12/16 03:17:04;;;;;;;;;;;-4.40;99.90;;;;;;5095357;28;19916;-86
2022/12/16 03:19:30;;;;;;;;;;;-4.40;99.90;;;;;;5095965;28;19919;-87
2022/12/16 03:22:01;;;;;;;;;;;-4.40;99.90;;;;;;5094677;28;19908;-86
2022/12/16 03:24:29;;;;;;;;;;;-4.50;99.90;;;;;;5094045;28;20131;-86
2022/12/16 03:27:01;;;;;;;;;;;-4.50;99.90;;;;;;5095726;28;20372;-87
2022/12/16 03:29:36;;;;;;;;;;;-4.60;99.90;;;;;;5094201;28;19954;-86
2022/12/16 03:32:03;;;;;;;;;;;-4.60;99.90;;;;;;5094358;28;19961;-85
2022/12/16 03:34:36;;;;;;;;;;;-4.70;99.90;;;;;;5094315;28;20325;-86
2022/12/16 03:37:03;;;;;;;;;;;-4.70;99.90;;;;;;5095733;28;19944;-86
2022/12/16 03:39:30;;;;;;;;;;;-4.70;99.90;;;;;;5095729;28;20010;-86
2022/12/16 03:41:55;;;;;;;;;;;-4.80;99.90;;;;;;5093682;28;19908;-86
2022/12/16 03:44:24;;;;;;;;;;;-4.80;99.90;;;;;;5093985;28;19908;-86
2022/12/16 03:46:50;;;;;;;;;;;-4.80;99.90;;;;;;5094236;28;19990;-86
2022/12/16 03:49:15;;;;;;;;;;;-4.80;99.90;;;;;;5095585;28;19915;-86
2022/12/16 03:51:41;;;;;;;;;;;-4.90;99.90;;;;;;5093607;28;19909;-85
2022/12/16 03:54:06;;;;;;;;;;;-4.90;99.90;;;;;;5094081;28;20014;-86
2022/12/16 03:56:32;;;;;;;;;;;-4.90;99.90;;;;;;5093870;28;19919;-87
2022/12/16 03:58:57;;;;;;;;;;;-4.90;99.90;;;;;;5094779;28;19934;-86
2022/12/16 04:01:23;;;;;;;;;;;-4.90;99.90;;;;;;5093797;28;19908;-85
2022/12/16 04:03:48;;;;;;;;;;;-4.90;99.90;;;;;;5095208;28;20426;-86
2022/12/16 04:06:17;;;;;;;;;;;-5.00;99.90;;;;;;5093890;28;19908;-87
2022/12/16 04:08:46;;;;;;;;;;;-5.00;99.90;;;;;;5093517;28;19916;-86
2022/12/16 04:25:00;;;;;;;;;;;-5.20;99.90;;;;;;5094910;28;20489;-87
2022/12/16 04:27:26;;;;;;;;;;;-5.20;99.90;;;;;;5092628;28;20436;-85
